sensor_id;sensor_type;location;lat;lon;timestamp;temperature;humidity
20319;DHT22;10317;47.254;11.314;2023-07-13T00:00:53;17.60;99.90
20319;DHT22;10317;47.254;11.314;2023-07-13T00:03:19;17.60;99.90
20319;DHT22;10317;47.254;11.314;2023-07-13T00:05:45;17.60;99.90
20319;DHT22;10317;47.254;11.314;2023-07-13T00:08:10;17.60;99.90
20319;DHT22;10317;47.254;11.314;2023-07-13T00:10:43;17.60;99.90
20319;DHT22;10317;47.254;11.314;2023-07-13T00:13:11;17.70;99.90
20319;DHT22;10317;47.254;11.314;2023-07-13T00:15:37;17.70;99.90
20319;DHT22;10317;47.254;11.314;2023-07-13T00:18:03;17.70;99.90
20319;DHT22;10317;47.254;11.314;2023-07-13T00:20:29;17.70;99.90
20319;DHT22;10317;47.254;11.314;2023-07-13T00:22:54;17.80;99.90
20319;DHT22;10317;47.254;11.314;2023-07-13T00:25:21;17.80;99.90
20319;DHT22;10317;47.254;11.314;2023-07-13T00:27:49;17.80;99.90
20319;DHT22;10317;47.254;11.314;2023-07-13T00:30:16;17.80;99.90
20319;DHT22;10317;47.254;11.314;2023-07-13T00:32:42;17.70;99.90
20319;DHT22;10317;47.254;11.314;2023-07-13T00:35:08;17.60;99.90
20319;DHT22;10317;47.254;11.314;2023-07-13T00:37:34;17.70;99.90
20319;DHT22;10317;47.254;11.314;2023-07-13T00:40:02;17.70;99.90
20319;DHT22;10317;47.254;11.314;2023-07-13T00:42:29;17.70;99.90
20319;DHT22;10317;47.254;11.314;2023-07-13T00:47:42;17.80;99.90
20319;DHT22;10317;47.254;11.314;2023-07-13T00:50:11;17.70;99.90
20319;DHT22;10317;47.254;11.314;2023-07-13T00:52:41;17.70;99.90
20319;DHT22;10317;47.254;11.314;2023-07-13T00:55:08;17.60;99.90
20319;DHT22;10317;47.254;11.314;2023-07-13T00:57:35;17.50;99.90
20319;DHT22;10317;47.254;11.314;2023-07-13T01:00:04;17.50;99.90
20319;DHT22;10317;47.254;11.314;2023-07-13T01:02:32;17.60;99.90
20319;DHT22;10317;47.254;11.314;2023-07-13T01:04:58;17.60;99.90
20319;DHT22;10317;47.254;11.314;2023-07-13T01:07:25;17.50;99.90
20319;DHT22;10317;47.254;11.314;2023-07-13T01:09:50;17.50;99.90
20319;DHT22;10317;47.254;11.314;2023-07-13T01:12:16;17.50;99.90
20319;DHT22;10317;47.254;11.314;2023-07-13T01:14:42;17.60;99.90
20319;DHT22;10317;47.254;11.314;2023-07-13T01:17:11;17.60;99.90
20319;DHT22;10317;47.254;11.314;2023-07-13T01:19:40;17.50;99.90
20319;DHT22;10317;47.254;11.314;2023-07-13T01:22:14;17.50;99.90
20319;DHT22;10317;47.254;11.314;2023-07-13T01:24:42;17.50;99.90
20319;DHT22;10317;47.254;11.314;2023-07-13T01:27:10;17.60;99.90
20319;DHT22;10317;47.254;11.314;2023-07-13T01:29:38;17.60;99.90
20319;DHT22;10317;47.254;11.314;2023-07-13T01:32:14;17.60;99.90
20319;DHT22;10317;47.254;11.314;2023-07-13T01:34:40;17.60;99.90
20319;DHT22;10317;47.254;11.314;2023-07-13T01:37:08;17.60;99.90
20319;DHT22;10317;47.254;11.314;2023-07-13T01:39:35;17.60;99.90
20319;DHT22;10317;47.254;11.314;2023-07-13T01:42:01;17.60;99.90
20319;DHT22;10317;47.254;11.314;2023-07-13T01:44:27;17.60;99.90
20319;DHT22;10317;47.254;11.314;2023-07-13T01:46:53;17.70;99.90
20319;DHT22;10317;47.254;11.314;2023-07-13T01:49:19;17.70;99.90
20319;DHT22;10317;47.254;11.314;2023-07-13T01:51:44;17.70;99.90
20319;DHT22;10317;47.254;11.314;2023-07-13T01:54:10;17.70;99.90
20319;DHT22;10317;47.254;11.314;2023-07-13T01:56:36;17.70;99.90
20319;DHT22;10317;47.254;11.314;2023-07-13T01:59:02;17.70;99.90
20319;DHT22;10317;47.254;11.314;2023-07-13T02:01:27;17.70;99.90
20319;DHT22;10317;47.254;11.314;2023-07-13T02:03:53;17.70;99.90
20319;DHT22;10317;47.254;11.314;2023-07-13T02:06:18;17.70;99.90
20319;DHT22;10317;47.254;11.314;2023-07-13T02:08:44;17.70;99.90
20319;DHT22;10317;47.254;11.314;2023-07-13T02:11:10;17.70;99.90
20319;DHT22;10317;47.254;11.314;2023-07-13T02:13:36;17.70;99.90
20319;DHT22;10317;47.254;11.314;2023-07-13T02:16:02;17.70;99.90
20319;DHT22;10317;47.254;11.314;2023-07-13T02:18:28;17.70;99.90
20319;DHT22;10317;47.254;11.314;2023-07-13T02:20:53;17.70;99.90
20319;DHT22;10317;47.254;11.314;2023-07-13T02:23:19;17.70;99.90
20319;DHT22;10317;47.254;11.314;2023-07-13T02:25:45;17.70;99.90
20319;DHT22;10317;47.254;11.314;2023-07-13T02:28:11;17.70;99.90
20319;DHT22;10317;47.254;11.314;2023-07-13T02:30:37;17.70;99.90
20319;DHT22;10317;47.254;11.314;2023-07-13T02:33:04;17.70;99.90
20319;DHT22;10317;47.254;11.314;2023-07-13T02:35:30;17.70;99.90
20319;DHT22;10317;47.254;11.314;2023-07-13T02:37:56;17.60;99.90
20319;DHT22;10317;47.254;11.314;2023-07-13T02:40:21;17.60;99.90
20319;DHT22;10317;47.254;11.314;2023-07-13T02:42:47;17.60;99.90
20319;DHT22;10317;47.254;11.314;2023-07-13T02:45:13;17.60;99.90
20319;DHT22;10317;47.254;11.314;2023-07-13T02:47:41;17.60;99.90
20319;DHT22;10317;47.254;11.314;2023-07-13T02:50:07;17.60;99.90
20319;DHT22;10317;47.254;11.314;2023-07-13T02:52:33;17.60;99.90
20319;DHT22;10317;47.254;11.314;2023-07-13T02:54:58;17.50;99.90
20319;DHT22;10317;47.254;11.314;2023-07-13T02:57:24;17.50;99.90
20319;DHT22;10317;47.254;11.314;2023-07-13T02:59:50;17.50;99.90
20319;DHT22;10317;47.254;11.314;2023-07-13T03:02:15;17.60;99.90
20319;DHT22;10317;47.254;11.314;2023-07-13T03:04:41;17.50;99.90
20319;DHT22;10317;47.254;11.314;2023-07-13T03:07:07;17.50;99.90
20319;DHT22;10317;47.254;11.314;2023-07-13T03:09:34;17.50;99.90
20319;DHT22;10317;47.254;11.314;2023-07-13T03:12:00;17.50;99.90
20319;DHT22;10317;47.254;11.314;2023-07-13T03:14:25;17.40;99.90
20319;DHT22;10317;47.254;11.314;2023-07-13T03:16:52;17.50;99.90
20319;DHT22;10317;47.254;11.314;2023-07-13T03:19:18;17.40;99.90
20319;DHT22;10317;47.254;11.314;2023-07-13T03:21:44;17.40;99.90
20319;DHT22;10317;47.254;11.314;2023-07-13T03:24:10;17.40;99.90
20319;DHT22;10317;47.254;11.314;2023-07-13T03:26:36;17.30;99.90
20319;DHT22;10317;47.254;11.314;2023-07-13T03:29:02;17.30;99.90
20319;DHT22;10317;47.254;11.314;2023-07-13T03:31:33;17.30;99.90
20319;DHT22;10317;47.254;11.314;2023-07-13T03:33:59;17.20;99.90
20319;DHT22;10317;47.254;11.314;2023-07-13T03:36:27;17.20;99.90
20319;DHT22;10317;47.254;11.314;2023-07-13T03:38:57;17.20;99.90
20319;DHT22;10317;47.254;11.314;2023-07-13T03:41:24;17.20;99.90
20319;DHT22;10317;47.254;11.314;2023-07-13T03:43:50;17.20;99.90
20319;DHT22;10317;47.254;11.314;2023-07-13T03:46:17;17.20;99.90
20319;DHT22;10317;47.254;11.314;2023-07-13T03:48:44;17.20;99.90
20319;DHT22;10317;47.254;11.314;2023-07-13T03:51:12;17.20;99.90
20319;DHT22;10317;47.254;11.314;2023-07-13T03:53:43;17.20;99.90
20319;DHT22;10317;47.254;11.314;2023-07-13T03:56:09;17.20;99.90
20319;DHT22;10317;47.254;11.314;2023-07-13T03:58:39;17.20;99.90
20319;DHT22;10317;47.254;11.314;2023-07-13T04:01:07;17.20;99.90
20319;DHT22;10317;47.254;11.314;2023-07-13T04:03:33;17.20;99.90
20319;DHT22;10317;47.254;11.314;2023-07-13T04:06:00;17.10;99.90
20319;DHT22;10317;47.254;11.314;2023-07-13T04:08:31;17.10;99.90
20319;DHT22;10317;47.254;11.314;2023-07-13T04:10:58;17.10;99.90
20319;DHT22;10317;47.254;11.314;2023-07-13T04:13:25;17.10;99.90
20319;DHT22;10317;47.254;11.314;2023-07-13T04:15:52;17.10;99.90
20319;DHT22;10317;47.254;11.314;2023-07-13T04:18:18;17.10;99.90
20319;DHT22;10317;47.254;11.314;2023-07-13T04:20:46;17.10;99.90
20319;DHT22;10317;47.254;11.314;2023-07-13T04:23:11;17.10;99.90
20319;DHT22;10317;47.254;11.314;2023-07-13T04:25:37;17.10;99.90
20319;DHT22;10317;47.254;11.314;2023-07-13T04:28:03;17.20;99.90
20319;DHT22;10317;47.254;11.314;2023-07-13T04:30:29;17.20;99.90
20319;DHT22;10317;47.254;11.314;2023-07-13T04:32:55;17.20;99.90
20319;DHT22;10317;47.254;11.314;2023-07-13T04:35:20;17.20;99.90
20319;DHT22;10317;47.254;11.314;2023-07-13T04:37:48;17.20;99.90
20319;DHT22;10317;47.254;11.314;2023-07-13T04:40:16;17.10;99.90
20319;DHT22;10317;47.254;11.314;2023-07-13T04:42:42;17.20;99.90
20319;DHT22;10317;47.254;11.314;2023-07-13T04:45:08;17.10;99.90
20319;DHT22;10317;47.254;11.314;2023-07-13T04:47:34;17.20;99.90
20319;DHT22;10317;47.254;11.314;2023-07-13T04:49:59;17.20;99.90
20319;DHT22;10317;47.254;11.314;2023-07-13T04:52:25;17.20;99.90
20319;DHT22;10317;47.254;11.314;2023-07-13T04:54:51;17.20;99.90
20319;DHT22;10317;47.254;11.314;2023-07-13T04:57:16;17.20;99.90
20319;DHT22;10317;47.254;11.314;2023-07-13T04:59:42;17.30;99.90
20319;DHT22;10317;47.254;11.314;2023-07-13T05:02:07;17.30;99.90
20319;DHT22;10317;47.254;11.314;2023-07-13T05:04:33;17.20;99.90
20319;DHT22;10317;47.254;11.314;2023-07-13T05:06:59;17.20;99.90
20319;DHT22;10317;47.254;11.314;2023-07-13T05:09:25;17.20;99.90
20319;DHT22;10317;47.254;11.314;2023-07-13T05:11:51;17.30;99.90
20319;DHT22;10317;47.254;11.314;2023-07-13T05:14:17;17.30;99.90
20319;DHT22;10317;47.254;11.314;2023-07-13T05:16:43;17.40;99.90
20319;DHT22;10317;47.254;11.314;2023-07-13T05:19:09;17.40;99.90
20319;DHT22;10317;47.254;11.314;2023-07-13T05:21:35;17.50;99.90
20319;DHT22;10317;47.254;11.314;2023-07-13T05:24:01;17.60;99.90
20319;DHT22;10317;47.254;11.314;2023-07-13T05:26:26;17.70;99.90
20319;DHT22;10317;47.254;11.314;2023-07-13T05:28:52;17.70;99.90
20319;DHT22;10317;47.254;11.314;2023-07-13T05:31:18;17.80;99.90
20319;DHT22;10317;47.254;11.314;2023-07-13T05:33:44;17.80;99.90
20319;DHT22;10317;47.254;11.314;2023-07-13T05:36:09;17.90;99.90
20319;DHT22;10317;47.254;11.314;2023-07-13T05:38:35;18.00;99.90
20319;DHT22;10317;47.254;11.314;2023-07-13T05:41:01;18.00;99.90
20319;DHT22;10317;47.254;11.314;2023-07-13T05:43:26;17.90;99.90
20319;DHT22;10317;47.254;11.314;2023-07-13T05:45:56;17.90;99.90
20319;DHT22;10317;47.254;11.314;2023-07-13T05:48:22;17.90;99.90
20319;DHT22;10317;47.254;11.314;2023-07-13T05:50:48;18.00;99.90
20319;DHT22;10317;47.254;11.314;2023-07-13T05:53:15;18.00;99.90
20319;DHT22;10317;47.254;11.314;2023-07-13T05:55:45;18.00;99.90
20319;DHT22;10317;47.254;11.314;2023-07-13T05:58:13;18.00;99.90
20319;DHT22;10317;47.254;11.314;2023-07-13T06:00:39;18.00;99.90
20319;DHT22;10317;47.254;11.314;2023-07-13T06:03:06;18.00;99.90
20319;DHT22;10317;47.254;11.314;2023-07-13T06:05:32;17.90;99.90
20319;DHT22;10317;47.254;11.314;2023-07-13T06:07:59;17.90;99.90
20319;DHT22;10317;47.254;11.314;2023-07-13T06:10:25;17.90;99.90
20319;DHT22;10317;47.254;11.314;2023-07-13T06:12:50;17.90;99.90
20319;DHT22;10317;47.254;11.314;2023-07-13T06:15:16;17.90;99.90
20319;DHT22;10317;47.254;11.314;2023-07-13T06:17:42;17.90;99.90
20319;DHT22;10317;47.254;11.314;2023-07-13T06:20:08;18.00;99.90
20319;DHT22;10317;47.254;11.314;2023-07-13T06:22:34;18.00;99.90
20319;DHT22;10317;47.254;11.314;2023-07-13T06:24:59;18.10;99.90
20319;DHT22;10317;47.254;11.314;2023-07-13T06:27:25;18.10;99.90
20319;DHT22;10317;47.254;11.314;2023-07-13T06:29:50;18.20;99.90
20319;DHT22;10317;47.254;11.314;2023-07-13T06:32:16;18.30;99.90
20319;DHT22;10317;47.254;11.314;2023-07-13T06:34:42;18.40;99.90
20319;DHT22;10317;47.254;11.314;2023-07-13T06:37:08;18.50;99.90
20319;DHT22;10317;47.254;11.314;2023-07-13T06:39:34;18.60;99.90
20319;DHT22;10317;47.254;11.314;2023-07-13T06:42:00;18.70;99.90
20319;DHT22;10317;47.254;11.314;2023-07-13T06:44:35;18.80;99.90
20319;DHT22;10317;47.254;11.314;2023-07-13T06:47:16;18.80;99.90
20319;DHT22;10317;47.254;11.314;2023-07-13T06:50:06;18.90;99.90
20319;DHT22;10317;47.254;11.314;2023-07-13T06:53:17;18.90;99.90
20319;DHT22;10317;47.254;11.314;2023-07-13T06:55:52;18.90;99.90
20319;DHT22;10317;47.254;11.314;2023-07-13T06:58:20;18.90;99.90
20319;DHT22;10317;47.254;11.314;2023-07-13T07:00:53;19.00;99.90
20319;DHT22;10317;47.254;11.314;2023-07-13T07:03:23;19.10;99.90
20319;DHT22;10317;47.254;11.314;2023-07-13T07:08:35;19.40;99.90
20319;DHT22;10317;47.254;11.314;2023-07-13T07:11:01;19.40;99.90
20319;DHT22;10317;47.254;11.314;2023-07-13T07:13:27;19.40;99.90
20319;DHT22;10317;47.254;11.314;2023-07-13T07:15:55;19.40;99.90
20319;DHT22;10317;47.254;11.314;2023-07-13T07:18:23;19.40;99.90
20319;DHT22;10317;47.254;11.314;2023-07-13T07:20:49;19.50;99.90
20319;DHT22;10317;47.254;11.314;2023-07-13T07:23:22;19.70;99.90
20319;DHT22;10317;47.254;11.314;2023-07-13T07:25:47;19.90;99.90
20319;DHT22;10317;47.254;11.314;2023-07-13T07:28:15;20.20;99.90
20319;DHT22;10317;47.254;11.314;2023-07-13T07:30:44;20.40;99.90
20319;DHT22;10317;47.254;11.314;2023-07-13T07:33:10;20.50;99.90
20319;DHT22;10317;47.254;11.314;2023-07-13T07:35:35;20.50;99.90
20319;DHT22;10317;47.254;11.314;2023-07-13T07:38:02;20.50;99.90
20319;DHT22;10317;47.254;11.314;2023-07-13T07:40:28;20.50;99.90
20319;DHT22;10317;47.254;11.314;2023-07-13T07:43:18;20.70;99.90
20319;DHT22;10317;47.254;11.314;2023-07-13T07:45:51;20.90;99.90
20319;DHT22;10317;47.254;11.314;2023-07-13T07:48:18;21.10;99.90
20319;DHT22;10317;47.254;11.314;2023-07-13T07:50:47;21.30;99.90
20319;DHT22;10317;47.254;11.314;2023-07-13T07:53:12;21.30;99.90
20319;DHT22;10317;47.254;11.314;2023-07-13T07:55:38;21.40;99.90
20319;DHT22;10317;47.254;11.314;2023-07-13T07:58:05;21.30;99.90
20319;DHT22;10317;47.254;11.314;2023-07-13T08:00:31;21.50;99.90
20319;DHT22;10317;47.254;11.314;2023-07-13T08:02:58;21.50;99.90
20319;DHT22;10317;47.254;11.314;2023-07-13T08:05:24;21.50;99.90
20319;DHT22;10317;47.254;11.314;2023-07-13T08:07:50;21.60;99.90
20319;DHT22;10317;47.254;11.314;2023-07-13T08:10:15;21.70;99.90
20319;DHT22;10317;47.254;11.314;2023-07-13T08:12:41;21.70;99.90
20319;DHT22;10317;47.254;11.314;2023-07-13T08:15:16;21.50;99.90
20319;DHT22;10317;47.254;11.314;2023-07-13T08:17:42;21.50;99.90
20319;DHT22;10317;47.254;11.314;2023-07-13T08:20:08;21.70;99.90
20319;DHT22;10317;47.254;11.314;2023-07-13T08:22:35;22.00;99.90
20319;DHT22;10317;47.254;11.314;2023-07-13T08:25:00;22.20;99.90
20319;DHT22;10317;47.254;11.314;2023-07-13T08:27:28;22.30;99.90
20319;DHT22;10317;47.254;11.314;2023-07-13T08:29:54;22.40;99.90
20319;DHT22;10317;47.254;11.314;2023-07-13T08:32:21;22.40;99.90
20319;DHT22;10317;47.254;11.314;2023-07-13T08:34:48;22.50;99.90
20319;DHT22;10317;47.254;11.314;2023-07-13T08:37:16;22.60;99.90
20319;DHT22;10317;47.254;11.314;2023-07-13T08:39:42;22.60;99.90
20319;DHT22;10317;47.254;11.314;2023-07-13T08:42:25;22.80;99.90
20319;DHT22;10317;47.254;11.314;2023-07-13T08:47:39;23.40;99.90
20319;DHT22;10317;47.254;11.314;2023-07-13T08:50:11;23.60;99.90
20319;DHT22;10317;47.254;11.314;2023-07-13T08:52:41;24.00;99.90
20319;DHT22;10317;47.254;11.314;2023-07-13T08:55:17;24.20;99.90
20319;DHT22;10317;47.254;11.314;2023-07-13T08:57:53;24.50;99.90
20319;DHT22;10317;47.254;11.314;2023-07-13T09:00:20;24.60;99.90
20319;DHT22;10317;47.254;11.314;2023-07-13T09:02:52;24.60;99.90
20319;DHT22;10317;47.254;11.314;2023-07-13T09:10:58;24.30;99.90
20319;DHT22;10317;47.254;11.314;2023-07-13T09:13:43;24.10;99.90
20319;DHT22;10317;47.254;11.314;2023-07-13T09:16:11;24.00;99.90
20319;DHT22;10317;47.254;11.314;2023-07-13T09:18:42;23.90;99.90
20319;DHT22;10317;47.254;11.314;2023-07-13T09:24:01;23.60;99.90
20319;DHT22;10317;47.254;11.314;2023-07-13T09:26:30;23.30;99.90
20319;DHT22;10317;47.254;11.314;2023-07-13T09:29:10;23.20;99.90
20319;DHT22;10317;47.254;11.314;2023-07-13T09:31:43;23.10;99.90
20319;DHT22;10317;47.254;11.314;2023-07-13T09:34:11;23.00;99.90
20319;DHT22;10317;47.254;11.314;2023-07-13T09:36:37;23.00;99.90
20319;DHT22;10317;47.254;11.314;2023-07-13T09:39:30;23.10;99.90
20319;DHT22;10317;47.254;11.314;2023-07-13T09:42:01;23.00;99.90
20319;DHT22;10317;47.254;11.314;2023-07-13T09:44:39;22.80;99.90
20319;DHT22;10317;47.254;11.314;2023-07-13T09:47:31;22.60;99.90
20319;DHT22;10317;47.254;11.314;2023-07-13T09:50:09;22.60;99.90
20319;DHT22;10317;47.254;11.314;2023-07-13T09:52:46;22.50;99.90
20319;DHT22;10317;47.254;11.314;2023-07-13T09:55:32;22.40;99.90
20319;DHT22;10317;47.254;11.314;2023-07-13T09:58:09;22.40;99.90
20319;DHT22;10317;47.254;11.314;2023-07-13T10:00:36;22.30;99.90
20319;DHT22;10317;47.254;11.314;2023-07-13T10:03:18;22.30;99.90
20319;DHT22;10317;47.254;11.314;2023-07-13T10:05:48;22.50;99.90
20319;DHT22;10317;47.254;11.314;2023-07-13T10:08:36;22.70;99.90
20319;DHT22;10317;47.254;11.314;2023-07-13T10:11:14;23.20;99.90
20319;DHT22;10317;47.254;11.314;2023-07-13T10:13:52;23.90;99.90
20319;DHT22;10317;47.254;11.314;2023-07-13T10:16:19;24.40;99.90
20319;DHT22;10317;47.254;11.314;2023-07-13T10:18:48;24.60;99.90
20319;DHT22;10317;47.254;11.314;2023-07-13T10:21:22;24.70;99.90
20319;DHT22;10317;47.254;11.314;2023-07-13T10:23:58;24.60;99.90
20319;DHT22;10317;47.254;11.314;2023-07-13T10:26:33;24.70;99.90
20319;DHT22;10317;47.254;11.314;2023-07-13T10:29:07;24.80;99.90
20319;DHT22;10317;47.254;11.314;2023-07-13T10:31:38;24.70;99.90
20319;DHT22;10317;47.254;11.314;2023-07-13T10:34:04;24.60;99.90
20319;DHT22;10317;47.254;11.314;2023-07-13T10:36:47;24.60;99.90
20319;DHT22;10317;47.254;11.314;2023-07-13T10:39:19;24.50;99.90
20319;DHT22;10317;47.254;11.314;2023-07-13T10:41:55;24.20;99.90
20319;DHT22;10317;47.254;11.314;2023-07-13T10:44:47;23.80;99.90
20319;DHT22;10317;47.254;11.314;2023-07-13T10:47:36;23.60;99.90
20319;DHT22;10317;47.254;11.314;2023-07-13T10:50:03;23.50;99.90
20319;DHT22;10317;47.254;11.314;2023-07-13T11:03:14;24.10;99.90
20319;DHT22;10317;47.254;11.314;2023-07-13T11:05:40;24.60;99.90
20319;DHT22;10317;47.254;11.314;2023-07-13T11:08:19;25.00;99.90
20319;DHT22;10317;47.254;11.314;2023-07-13T11:20:42;26.10;97.00
20319;DHT22;10317;47.254;11.314;2023-07-13T11:23:26;26.30;95.70
20319;DHT22;10317;47.254;11.314;2023-07-13T11:29:32;26.00;96.60
20319;DHT22;10317;47.254;11.314;2023-07-13T11:34:47;25.50;96.50
20319;DHT22;10317;47.254;11.314;2023-07-13T11:37:15;25.20;97.10
20319;DHT22;10317;47.254;11.314;2023-07-13T11:39:44;25.00;97.00
20319;DHT22;10317;47.254;11.314;2023-07-13T11:42:16;24.80;99.00
20319;DHT22;10317;47.254;11.314;2023-07-13T11:44:49;24.60;99.50
20319;DHT22;10317;47.254;11.314;2023-07-13T11:47:20;24.30;99.20
20319;DHT22;10317;47.254;11.314;2023-07-13T11:49:52;24.10;98.90
20319;DHT22;10317;47.254;11.314;2023-07-13T11:52:35;23.70;99.20
20319;DHT22;10317;47.254;11.314;2023-07-13T11:55:08;23.50;99.90
20319;DHT22;10317;47.254;11.314;2023-07-13T11:57:45;23.10;99.40
20319;DHT22;10317;47.254;11.314;2023-07-13T12:00:15;22.90;98.90
20319;DHT22;10317;47.254;11.314;2023-07-13T12:02:53;22.70;99.90
20319;DHT22;10317;47.254;11.314;2023-07-13T12:05:20;22.50;99.90
20319;DHT22;10317;47.254;11.314;2023-07-13T12:07:47;22.40;99.80
20319;DHT22;10317;47.254;11.314;2023-07-13T12:13:08;22.00;99.90
20319;DHT22;10317;47.254;11.314;2023-07-13T12:15:38;21.90;99.70
20319;DHT22;10317;47.254;11.314;2023-07-13T12:18:15;21.80;99.90
20319;DHT22;10317;47.254;11.314;2023-07-13T12:20:45;21.60;99.90
20319;DHT22;10317;47.254;11.314;2023-07-13T12:23:32;21.60;99.90
20319;DHT22;10317;47.254;11.314;2023-07-13T12:26:01;21.50;99.90
20319;DHT22;10317;47.254;11.314;2023-07-13T12:28:39;21.30;99.90
20319;DHT22;10317;47.254;11.314;2023-07-13T12:31:44;21.20;99.90
20319;DHT22;10317;47.254;11.314;2023-07-13T12:34:20;21.10;99.90
20319;DHT22;10317;47.254;11.314;2023-07-13T12:44:58;20.70;99.90
20319;DHT22;10317;47.254;11.314;2023-07-13T12:47:25;20.60;99.90
20319;DHT22;10317;47.254;11.314;2023-07-13T12:49:58;20.60;99.90
20319;DHT22;10317;47.254;11.314;2023-07-13T12:52:32;20.50;99.90
20319;DHT22;10317;47.254;11.314;2023-07-13T12:55:06;20.40;99.90
20319;DHT22;10317;47.254;11.314;2023-07-13T12:57:39;20.40;99.90
20319;DHT22;10317;47.254;11.314;2023-07-13T13:02:52;20.30;99.90
20319;DHT22;10317;47.254;11.314;2023-07-13T13:05:18;20.30;99.90
20319;DHT22;10317;47.254;11.314;2023-07-13T13:07:45;20.30;99.90
20319;DHT22;10317;47.254;11.314;2023-07-13T13:10:13;20.30;99.90
20319;DHT22;10317;47.254;11.314;2023-07-13T13:12:40;20.30;99.90
20319;DHT22;10317;47.254;11.314;2023-07-13T13:15:09;20.40;99.90
20319;DHT22;10317;47.254;11.314;2023-07-13T13:17:35;20.50;99.90
20319;DHT22;10317;47.254;11.314;2023-07-13T13:20:01;20.50;99.90
20319;DHT22;10317;47.254;11.314;2023-07-13T13:22:27;20.60;99.90
20319;DHT22;10317;47.254;11.314;2023-07-13T13:24:53;20.70;99.90
20319;DHT22;10317;47.254;11.314;2023-07-13T13:27:22;20.70;99.90
20319;DHT22;10317;47.254;11.314;2023-07-13T13:29:51;20.80;99.90
20319;DHT22;10317;47.254;11.314;2023-07-13T13:32:18;20.90;99.90
20319;DHT22;10317;47.254;11.314;2023-07-13T13:34:44;21.00;99.90
20319;DHT22;10317;47.254;11.314;2023-07-13T13:37:21;21.10;99.90
20319;DHT22;10317;47.254;11.314;2023-07-13T13:39:48;21.40;99.90
20319;DHT22;10317;47.254;11.314;2023-07-13T13:42:14;21.70;99.90
20319;DHT22;10317;47.254;11.314;2023-07-13T13:44:42;22.00;98.50
20319;DHT22;10317;47.254;11.314;2023-07-13T13:47:31;22.10;99.90
20319;DHT22;10317;47.254;11.314;2023-07-13T13:49:58;22.10;99.10
20319;DHT22;10317;47.254;11.314;2023-07-13T13:52:24;22.20;99.00
20319;DHT22;10317;47.254;11.314;2023-07-13T13:54:51;22.20;98.10
20319;DHT22;10317;47.254;11.314;2023-07-13T13:57:22;22.20;99.90
20319;DHT22;10317;47.254;11.314;2023-07-13T13:59:49;22.20;99.90
20319;DHT22;10317;47.254;11.314;2023-07-13T14:02:27;22.30;98.60
20319;DHT22;10317;47.254;11.314;2023-07-13T14:04:58;22.40;99.10
20319;DHT22;10317;47.254;11.314;2023-07-13T14:07:31;22.40;99.30
20319;DHT22;10317;47.254;11.314;2023-07-13T14:09:57;22.40;98.60
20319;DHT22;10317;47.254;11.314;2023-07-13T14:12:24;22.50;98.70
20319;DHT22;10317;47.254;11.314;2023-07-13T14:14:54;22.60;98.60
20319;DHT22;10317;47.254;11.314;2023-07-13T14:17:33;22.70;98.50
20319;DHT22;10317;47.254;11.314;2023-07-13T14:19:59;22.80;98.00
20319;DHT22;10317;47.254;11.314;2023-07-13T14:22:26;22.70;98.40
20319;DHT22;10317;47.254;11.314;2023-07-13T14:24:53;22.80;98.20
20319;DHT22;10317;47.254;11.314;2023-07-13T14:27:19;22.80;97.30
20319;DHT22;10317;47.254;11.314;2023-07-13T14:29:44;22.70;98.00
20319;DHT22;10317;47.254;11.314;2023-07-13T14:32:12;22.60;97.20
20319;DHT22;10317;47.254;11.314;2023-07-13T14:34:38;22.50;97.00
20319;DHT22;10317;47.254;11.314;2023-07-13T14:37:05;22.50;97.00
20319;DHT22;10317;47.254;11.314;2023-07-13T14:39:31;22.40;98.10
20319;DHT22;10317;47.254;11.314;2023-07-13T14:41:57;22.20;99.90
20319;DHT22;10317;47.254;11.314;2023-07-13T14:44:30;22.00;99.30
20319;DHT22;10317;47.254;11.314;2023-07-13T14:46:58;21.80;99.90
20319;DHT22;10317;47.254;11.314;2023-07-13T14:49:33;21.60;99.90
20319;DHT22;10317;47.254;11.314;2023-07-13T14:52:14;21.50;99.90
20319;DHT22;10317;47.254;11.314;2023-07-13T14:54:42;21.30;99.90
20319;DHT22;10317;47.254;11.314;2023-07-13T14:57:13;21.10;99.90
20319;DHT22;10317;47.254;11.314;2023-07-13T14:59:39;21.00;99.90
20319;DHT22;10317;47.254;11.314;2023-07-13T15:02:27;20.80;99.90
20319;DHT22;10317;47.254;11.314;2023-07-13T15:04:53;20.60;99.90
20319;DHT22;10317;47.254;11.314;2023-07-13T15:07:20;20.40;99.90
20319;DHT22;10317;47.254;11.314;2023-07-13T15:09:46;20.20;99.90
20319;DHT22;10317;47.254;11.314;2023-07-13T15:12:13;20.00;99.90
20319;DHT22;10317;47.254;11.314;2023-07-13T15:14:39;20.00;99.90
20319;DHT22;10317;47.254;11.314;2023-07-13T15:17:08;19.90;99.90
20319;DHT22;10317;47.254;11.314;2023-07-13T15:19:38;20.00;99.90
20319;DHT22;10317;47.254;11.314;2023-07-13T15:22:04;19.90;99.90
20319;DHT22;10317;47.254;11.314;2023-07-13T15:24:34;20.00;99.90
20319;DHT22;10317;47.254;11.314;2023-07-13T15:27:01;20.00;99.90
20319;DHT22;10317;47.254;11.314;2023-07-13T15:29:26;20.00;99.90
20319;DHT22;10317;47.254;11.314;2023-07-13T15:31:52;20.00;99.90
20319;DHT22;10317;47.254;11.314;2023-07-13T15:34:24;20.10;99.90
20319;DHT22;10317;47.254;11.314;2023-07-13T15:36:51;20.20;99.90
20319;DHT22;10317;47.254;11.314;2023-07-13T15:39:17;20.30;99.90
20319;DHT22;10317;47.254;11.314;2023-07-13T15:41:44;20.30;99.90
20319;DHT22;10317;47.254;11.314;2023-07-13T15:46:51;20.40;99.90
20319;DHT22;10317;47.254;11.314;2023-07-13T15:49:17;20.50;99.90
20319;DHT22;10317;47.254;11.314;2023-07-13T15:51:42;20.50;99.90
20319;DHT22;10317;47.254;11.314;2023-07-13T15:54:10;20.70;99.90
20319;DHT22;10317;47.254;11.314;2023-07-13T15:56:37;20.70;99.90
20319;DHT22;10317;47.254;11.314;2023-07-13T15:59:05;20.80;99.90
20319;DHT22;10317;47.254;11.314;2023-07-13T16:01:32;21.00;99.90
20319;DHT22;10317;47.254;11.314;2023-07-13T16:03:58;21.10;99.90
20319;DHT22;10317;47.254;11.314;2023-07-13T16:06:34;21.10;99.90
20319;DHT22;10317;47.254;11.314;2023-07-13T16:09:02;21.10;99.90
20319;DHT22;10317;47.254;11.314;2023-07-13T16:11:33;21.00;99.90
20319;DHT22;10317;47.254;11.314;2023-07-13T16:13:59;20.80;99.90
20319;DHT22;10317;47.254;11.314;2023-07-13T16:16:30;20.70;99.90
20319;DHT22;10317;47.254;11.314;2023-07-13T16:18:58;20.70;99.90
20319;DHT22;10317;47.254;11.314;2023-07-13T16:21:26;20.60;99.90
20319;DHT22;10317;47.254;11.314;2023-07-13T16:23:53;20.60;99.90
20319;DHT22;10317;47.254;11.314;2023-07-13T16:26:37;20.50;99.90